sensor_id;sensor_type;location;lat;lon;timestamp;P1;durP1;ratioP1;P2;durP2;ratioP2
67751;SDS011;54551;51.068;5.826;2022-07-30T00:00:04;9.07;;;5.17;;
67751;SDS011;54551;51.068;5.826;2022-07-30T00:02:32;5.53;;;4.93;;
67751;SDS011;54551;51.068;5.826;2022-07-30T00:04:58;5.60;;;4.90;;
67751;SDS011;54551;51.068;5.826;2022-07-30T00:07:24;5.90;;;4.73;;
67751;SDS011;54551;51.068;5.826;2022-07-30T00:09:50;5.50;;;4.80;;
67751;SDS011;54551;51.068;5.826;2022-07-30T00:12:16;10.00;;;5.43;;
67751;SDS011;54551;51.068;5.826;2022-07-30T00:14:42;5.87;;;5.27;;
67751;SDS011;54551;51.068;5.826;2022-07-30T00:17:08;7.23;;;5.30;;
67751;SDS011;54551;51.068;5.826;2022-07-30T00:19:34;7.17;;;5.17;;
67751;SDS011;54551;51.068;5.826;2022-07-30T00:22:00;6.77;;;5.70;;
67751;SDS011;54551;51.068;5.826;2022-07-30T00:24:26;12.70;;;5.80;;
67751;SDS011;54551;51.068;5.826;2022-07-30T00:26:52;6.60;;;5.47;;
67751;SDS011;54551;51.068;5.826;2022-07-30T00:29:18;6.90;;;5.00;;
67751;SDS011;54551;51.068;5.826;2022-07-30T00:31:44;6.73;;;5.20;;
67751;SDS011;54551;51.068;5.826;2022-07-30T00:34:10;6.20;;;4.87;;
67751;SDS011;54551;51.068;5.826;2022-07-30T00:36:37;7.50;;;5.50;;
67751;SDS011;54551;51.068;5.826;2022-07-30T00:39:04;8.40;;;5.20;;
67751;SDS011;54551;51.068;5.826;2022-07-30T00:41:30;9.50;;;5.10;;
67751;SDS011;54551;51.068;5.826;2022-07-30T00:43:56;11.40;;;5.97;;
67751;SDS011;54551;51.068;5.826;2022-07-30T00:46:22;9.20;;;5.33;;
67751;SDS011;54551;51.068;5.826;2022-07-30T00:48:49;6.30;;;5.13;;
67751;SDS011;54551;51.068;5.826;2022-07-30T00:51:15;7.13;;;5.50;;
67751;SDS011;54551;51.068;5.826;2022-07-30T00:53:41;10.10;;;5.13;;
67751;SDS011;54551;51.068;5.826;2022-07-30T00:56:07;10.10;;;5.37;;
67751;SDS011;54551;51.068;5.826;2022-07-30T00:58:33;8.83;;;5.73;;
67751;SDS011;54551;51.068;5.826;2022-07-30T01:00:59;5.60;;;5.07;;
67751;SDS011;54551;51.068;5.826;2022-07-30T01:03:25;6.97;;;5.20;;
67751;SDS011;54551;51.068;5.826;2022-07-30T01:05:51;7.83;;;5.47;;
67751;SDS011;54551;51.068;5.826;2022-07-30T01:08:17;10.60;;;5.73;;
67751;SDS011;54551;51.068;5.826;2022-07-30T01:10:43;9.70;;;6.00;;
67751;SDS011;54551;51.068;5.826;2022-07-30T01:13:09;6.67;;;5.10;;
67751;SDS011;54551;51.068;5.826;2022-07-30T01:15:35;7.33;;;5.07;;
67751;SDS011;54551;51.068;5.826;2022-07-30T01:18:02;6.10;;;5.50;;
67751;SDS011;54551;51.068;5.826;2022-07-30T01:20:34;5.60;;;5.10;;
67751;SDS011;54551;51.068;5.826;2022-07-30T01:25:51;7.47;;;5.90;;
67751;SDS011;54551;51.068;5.826;2022-07-30T01:28:40;7.43;;;5.50;;
67751;SDS011;54551;51.068;5.826;2022-07-30T01:31:08;7.63;;;5.80;;
67751;SDS011;54551;51.068;5.826;2022-07-30T01:33:38;7.20;;;6.17;;
67751;SDS011;54551;51.068;5.826;2022-07-30T01:36:07;8.07;;;5.63;;
67751;SDS011;54551;51.068;5.826;2022-07-30T01:38:39;7.03;;;5.77;;
67751;SDS011;54551;51.068;5.826;2022-07-30T01:41:08;8.30;;;6.23;;
67751;SDS011;54551;51.068;5.826;2022-07-30T01:43:35;9.87;;;5.57;;
67751;SDS011;54551;51.068;5.826;2022-07-30T01:46:03;7.73;;;6.07;;
67751;SDS011;54551;51.068;5.826;2022-07-30T01:48:30;8.43;;;6.27;;
67751;SDS011;54551;51.068;5.826;2022-07-30T01:51:01;7.00;;;6.30;;
67751;SDS011;54551;51.068;5.826;2022-07-30T01:53:30;7.43;;;6.17;;
67751;SDS011;54551;51.068;5.826;2022-07-30T01:55:59;8.37;;;6.63;;
67751;SDS011;54551;51.068;5.826;2022-07-30T01:58:27;8.80;;;6.23;;
67751;SDS011;54551;51.068;5.826;2022-07-30T02:01:04;9.07;;;6.93;;
67751;SDS011;54551;51.068;5.826;2022-07-30T02:03:31;8.67;;;6.47;;
67751;SDS011;54551;51.068;5.826;2022-07-30T02:06:03;8.60;;;7.03;;
67751;SDS011;54551;51.068;5.826;2022-07-30T02:08:47;8.27;;;6.93;;
67751;SDS011;54551;51.068;5.826;2022-07-30T02:11:19;10.13;;;6.60;;
67751;SDS011;54551;51.068;5.826;2022-07-30T02:14:21;8.53;;;6.80;;
67751;SDS011;54551;51.068;5.826;2022-07-30T02:16:54;10.70;;;7.03;;
67751;SDS011;54551;51.068;5.826;2022-07-30T02:19:23;8.33;;;7.03;;
67751;SDS011;54551;51.068;5.826;2022-07-30T02:22:05;8.27;;;7.37;;
67751;SDS011;54551;51.068;5.826;2022-07-30T02:24:35;11.80;;;7.60;;
67751;SDS011;54551;51.068;5.826;2022-07-30T02:27:07;7.57;;;6.83;;
67751;SDS011;54551;51.068;5.826;2022-07-30T02:29:39;10.23;;;7.30;;
67751;SDS011;54551;51.068;5.826;2022-07-30T02:32:10;8.13;;;7.00;;
67751;SDS011;54551;51.068;5.826;2022-07-30T02:34:40;9.00;;;7.33;;
67751;SDS011;54551;51.068;5.826;2022-07-30T02:37:08;13.07;;;8.00;;
67751;SDS011;54551;51.068;5.826;2022-07-30T02:39:36;10.50;;;8.07;;
67751;SDS011;54551;51.068;5.826;2022-07-30T02:42:04;11.27;;;8.43;;
67751;SDS011;54551;51.068;5.826;2022-07-30T02:44:31;8.47;;;7.27;;
67751;SDS011;54551;51.068;5.826;2022-07-30T02:46:59;11.23;;;7.73;;
67751;SDS011;54551;51.068;5.826;2022-07-30T02:49:28;10.13;;;7.97;;
67751;SDS011;54551;51.068;5.826;2022-07-30T02:51:58;10.60;;;8.03;;
67751;SDS011;54551;51.068;5.826;2022-07-30T02:54:25;8.77;;;7.87;;
67751;SDS011;54551;51.068;5.826;2022-07-30T02:56:53;9.43;;;8.30;;
67751;SDS011;54551;51.068;5.826;2022-07-30T02:59:21;10.67;;;8.97;;
67751;SDS011;54551;51.068;5.826;2022-07-30T03:01:50;9.53;;;8.30;;
67751;SDS011;54551;51.068;5.826;2022-07-30T03:04:18;10.10;;;9.00;;
67751;SDS011;54551;51.068;5.826;2022-07-30T03:06:47;14.17;;;9.40;;
67751;SDS011;54551;51.068;5.826;2022-07-30T03:09:14;10.30;;;9.10;;
67751;SDS011;54551;51.068;5.826;2022-07-30T03:11:41;12.47;;;9.47;;
67751;SDS011;54551;51.068;5.826;2022-07-30T03:14:10;12.57;;;10.13;;
67751;SDS011;54551;51.068;5.826;2022-07-30T03:16:36;12.30;;;10.10;;
67751;SDS011;54551;51.068;5.826;2022-07-30T03:19:06;10.83;;;9.83;;
67751;SDS011;54551;51.068;5.826;2022-07-30T03:21:34;12.53;;;10.27;;
67751;SDS011;54551;51.068;5.826;2022-07-30T03:24:02;11.67;;;10.43;;
67751;SDS011;54551;51.068;5.826;2022-07-30T03:26:31;12.00;;;10.37;;
67751;SDS011;54551;51.068;5.826;2022-07-30T03:28:59;12.73;;;9.90;;
67751;SDS011;54551;51.068;5.826;2022-07-30T03:31:26;11.60;;;10.40;;
67751;SDS011;54551;51.068;5.826;2022-07-30T03:33:54;11.50;;;10.17;;
67751;SDS011;54551;51.068;5.826;2022-07-30T03:36:20;12.53;;;10.57;;
67751;SDS011;54551;51.068;5.826;2022-07-30T03:38:46;12.10;;;10.77;;
67751;SDS011;54551;51.068;5.826;2022-07-30T03:41:14;12.37;;;10.80;;
67751;SDS011;54551;51.068;5.826;2022-07-30T03:43:43;15.17;;;11.10;;
67751;SDS011;54551;51.068;5.826;2022-07-30T03:46:10;11.97;;;10.77;;
67751;SDS011;54551;51.068;5.826;2022-07-30T03:48:40;16.53;;;11.73;;
67751;SDS011;54551;51.068;5.826;2022-07-30T03:51:08;13.00;;;11.80;;
67751;SDS011;54551;51.068;5.826;2022-07-30T03:53:38;12.50;;;11.23;;
67751;SDS011;54551;51.068;5.826;2022-07-30T03:56:40;14.27;;;12.13;;
67751;SDS011;54551;51.068;5.826;2022-07-30T03:59:09;14.23;;;12.83;;
67751;SDS011;54551;51.068;5.826;2022-07-30T04:01:38;14.13;;;12.77;;
67751;SDS011;54551;51.068;5.826;2022-07-30T04:04:10;13.53;;;12.20;;
67751;SDS011;54551;51.068;5.826;2022-07-30T04:06:38;15.93;;;12.80;;
67751;SDS011;54551;51.068;5.826;2022-07-30T04:09:05;14.20;;;12.83;;
67751;SDS011;54551;51.068;5.826;2022-07-30T04:11:35;15.77;;;14.17;;
67751;SDS011;54551;51.068;5.826;2022-07-30T04:14:06;15.47;;;13.97;;
67751;SDS011;54551;51.068;5.826;2022-07-30T04:19:29;17.30;;;14.17;;
67751;SDS011;54551;51.068;5.826;2022-07-30T04:21:59;15.17;;;13.67;;
67751;SDS011;54551;51.068;5.826;2022-07-30T04:24:28;19.43;;;14.43;;
67751;SDS011;54551;51.068;5.826;2022-07-30T04:26:59;16.57;;;14.83;;
67751;SDS011;54551;51.068;5.826;2022-07-30T04:29:25;17.17;;;15.50;;
67751;SDS011;54551;51.068;5.826;2022-07-30T04:31:53;17.07;;;14.83;;
67751;SDS011;54551;51.068;5.826;2022-07-30T04:34:44;17.67;;;15.53;;
67751;SDS011;54551;51.068;5.826;2022-07-30T04:37:12;17.50;;;15.60;;
67751;SDS011;54551;51.068;5.826;2022-07-30T04:39:40;21.20;;;15.83;;
67751;SDS011;54551;51.068;5.826;2022-07-30T04:42:06;18.73;;;16.67;;
67751;SDS011;54551;51.068;5.826;2022-07-30T04:44:33;20.37;;;17.27;;
67751;SDS011;54551;51.068;5.826;2022-07-30T04:47:23;18.37;;;16.20;;
67751;SDS011;54551;51.068;5.826;2022-07-30T04:50:20;18.17;;;16.37;;
67751;SDS011;54551;51.068;5.826;2022-07-30T04:52:49;18.67;;;16.77;;
67751;SDS011;54551;51.068;5.826;2022-07-30T04:55:22;19.23;;;17.23;;
67751;SDS011;54551;51.068;5.826;2022-07-30T04:57:50;22.03;;;19.73;;
67751;SDS011;54551;51.068;5.826;2022-07-30T05:00:17;20.20;;;18.03;;
67751;SDS011;54551;51.068;5.826;2022-07-30T05:02:45;21.67;;;18.23;;
67751;SDS011;54551;51.068;5.826;2022-07-30T05:05:11;19.63;;;17.67;;
67751;SDS011;54551;51.068;5.826;2022-07-30T05:07:40;19.83;;;17.90;;
67751;SDS011;54551;51.068;5.826;2022-07-30T05:10:08;20.30;;;18.20;;
67751;SDS011;54551;51.068;5.826;2022-07-30T05:12:35;21.73;;;19.57;;
67751;SDS011;54551;51.068;5.826;2022-07-30T05:15:04;22.47;;;19.50;;
67751;SDS011;54551;51.068;5.826;2022-07-30T05:17:31;21.23;;;19.03;;
67751;SDS011;54551;51.068;5.826;2022-07-30T05:19:59;22.17;;;19.93;;
67751;SDS011;54551;51.068;5.826;2022-07-30T05:22:26;26.50;;;22.03;;
67751;SDS011;54551;51.068;5.826;2022-07-30T05:24:57;24.00;;;21.07;;
67751;SDS011;54551;51.068;5.826;2022-07-30T05:27:24;23.43;;;20.93;;
67751;SDS011;54551;51.068;5.826;2022-07-30T05:29:50;25.47;;;22.67;;
67751;SDS011;54551;51.068;5.826;2022-07-30T05:32:18;25.83;;;23.03;;
67751;SDS011;54551;51.068;5.826;2022-07-30T05:34:44;31.60;;;24.43;;
67751;SDS011;54551;51.068;5.826;2022-07-30T05:37:10;28.40;;;23.60;;
67751;SDS011;54551;51.068;5.826;2022-07-30T05:39:36;30.10;;;24.37;;
67751;SDS011;54551;51.068;5.826;2022-07-30T05:42:20;29.77;;;22.90;;
67751;SDS011;54551;51.068;5.826;2022-07-30T05:44:50;28.47;;;23.30;;
67751;SDS011;54551;51.068;5.826;2022-07-30T05:47:16;26.67;;;23.07;;
67751;SDS011;54551;51.068;5.826;2022-07-30T05:49:45;25.93;;;21.90;;
67751;SDS011;54551;51.068;5.826;2022-07-30T05:52:11;29.97;;;23.07;;
67751;SDS011;54551;51.068;5.826;2022-07-30T05:54:37;25.00;;;21.87;;
67751;SDS011;54551;51.068;5.826;2022-07-30T05:57:22;27.73;;;22.17;;
67751;SDS011;54551;51.068;5.826;2022-07-30T05:59:47;25.33;;;21.83;;
67751;SDS011;54551;51.068;5.826;2022-07-30T06:02:41;24.43;;;21.20;;
67751;SDS011;54551;51.068;5.826;2022-07-30T06:05:27;29.47;;;21.17;;
67751;SDS011;54551;51.068;5.826;2022-07-30T06:07:56;25.53;;;22.33;;
67751;SDS011;54551;51.068;5.826;2022-07-30T06:10:25;26.23;;;21.13;;
67751;SDS011;54551;51.068;5.826;2022-07-30T06:12:52;27.53;;;21.43;;
67751;SDS011;54551;51.068;5.826;2022-07-30T06:15:18;25.60;;;21.00;;
67751;SDS011;54551;51.068;5.826;2022-07-30T06:17:45;24.97;;;21.07;;
67751;SDS011;54551;51.068;5.826;2022-07-30T06:20:16;23.03;;;20.63;;
67751;SDS011;54551;51.068;5.826;2022-07-30T06:23:01;26.70;;;21.03;;
67751;SDS011;54551;51.068;5.826;2022-07-30T06:25:40;24.07;;;21.10;;
67751;SDS011;54551;51.068;5.826;2022-07-30T06:28:06;22.53;;;20.13;;
67751;SDS011;54551;51.068;5.826;2022-07-30T06:30:32;24.60;;;20.87;;
67751;SDS011;54551;51.068;5.826;2022-07-30T06:32:58;24.20;;;20.10;;
67751;SDS011;54551;51.068;5.826;2022-07-30T06:35:24;25.00;;;19.23;;
67751;SDS011;54551;51.068;5.826;2022-07-30T06:37:50;22.47;;;18.70;;
67751;SDS011;54551;51.068;5.826;2022-07-30T06:40:16;22.80;;;19.93;;
67751;SDS011;54551;51.068;5.826;2022-07-30T06:43:00;23.20;;;20.00;;
67751;SDS011;54551;51.068;5.826;2022-07-30T06:45:33;23.07;;;18.37;;
67751;SDS011;54551;51.068;5.826;2022-07-30T06:48:35;22.77;;;18.50;;
67751;SDS011;54551;51.068;5.826;2022-07-30T06:51:03;22.27;;;18.60;;
67751;SDS011;54551;51.068;5.826;2022-07-30T06:53:30;22.53;;;19.47;;
67751;SDS011;54551;51.068;5.826;2022-07-30T06:56:11;21.27;;;18.00;;
67751;SDS011;54551;51.068;5.826;2022-07-30T06:58:52;22.13;;;19.13;;
67751;SDS011;54551;51.068;5.826;2022-07-30T07:01:36;19.10;;;17.30;;
67751;SDS011;54551;51.068;5.826;2022-07-30T07:04:02;21.07;;;18.90;;
67751;SDS011;54551;51.068;5.826;2022-07-30T07:06:28;21.53;;;18.77;;
67751;SDS011;54551;51.068;5.826;2022-07-30T07:08:54;23.33;;;18.90;;
67751;SDS011;54551;51.068;5.826;2022-07-30T07:11:29;21.37;;;17.87;;
67751;SDS011;54551;51.068;5.826;2022-07-30T07:13:56;19.43;;;17.30;;
67751;SDS011;54551;51.068;5.826;2022-07-30T07:16:31;20.67;;;18.60;;
67751;SDS011;54551;51.068;5.826;2022-07-30T07:19:02;20.47;;;18.30;;
67751;SDS011;54551;51.068;5.826;2022-07-30T07:21:28;22.00;;;19.87;;
67751;SDS011;54551;51.068;5.826;2022-07-30T07:23:54;21.13;;;18.20;;
67751;SDS011;54551;51.068;5.826;2022-07-30T07:26:38;20.03;;;17.90;;
67751;SDS011;54551;51.068;5.826;2022-07-30T07:29:07;21.47;;;19.37;;
67751;SDS011;54551;51.068;5.826;2022-07-30T07:31:33;20.80;;;17.83;;
67751;SDS011;54551;51.068;5.826;2022-07-30T07:33:59;21.13;;;18.07;;
67751;SDS011;54551;51.068;5.826;2022-07-30T07:36:25;17.63;;;15.90;;
67751;SDS011;54551;51.068;5.826;2022-07-30T07:38:51;16.90;;;15.17;;
67751;SDS011;54551;51.068;5.826;2022-07-30T07:41:17;20.63;;;17.27;;
67751;SDS011;54551;51.068;5.826;2022-07-30T07:43:43;18.30;;;16.00;;
67751;SDS011;54551;51.068;5.826;2022-07-30T07:46:13;18.53;;;16.57;;
67751;SDS011;54551;51.068;5.826;2022-07-30T07:48:42;18.20;;;16.30;;
67751;SDS011;54551;51.068;5.826;2022-07-30T07:51:28;16.93;;;14.53;;
67751;SDS011;54551;51.068;5.826;2022-07-30T07:53:54;15.63;;;13.43;;
67751;SDS011;54551;51.068;5.826;2022-07-30T07:56:20;13.20;;;11.83;;
67751;SDS011;54551;51.068;5.826;2022-07-30T07:58:46;14.30;;;12.90;;
67751;SDS011;54551;51.068;5.826;2022-07-30T08:01:13;15.17;;;13.10;;
67751;SDS011;54551;51.068;5.826;2022-07-30T08:03:59;14.30;;;12.90;;
67751;SDS011;54551;51.068;5.826;2022-07-30T08:06:57;13.93;;;12.33;;
67751;SDS011;54551;51.068;5.826;2022-07-30T08:09:41;13.43;;;11.97;;
67751;SDS011;54551;51.068;5.826;2022-07-30T08:12:23;13.73;;;11.97;;
67751;SDS011;54551;51.068;5.826;2022-07-30T08:15:08;14.30;;;12.87;;
67751;SDS011;54551;51.068;5.826;2022-07-30T08:17:52;15.20;;;12.33;;
67751;SDS011;54551;51.068;5.826;2022-07-30T08:20:30;18.57;;;13.40;;
67751;SDS011;54551;51.068;5.826;2022-07-30T08:22:56;14.80;;;12.17;;
67751;SDS011;54551;51.068;5.826;2022-07-30T08:25:24;10.90;;;8.87;;
67751;SDS011;54551;51.068;5.826;2022-07-30T08:27:51;7.83;;;7.07;;
67751;SDS011;54551;51.068;5.826;2022-07-30T08:30:17;14.03;;;9.00;;
67751;SDS011;54551;51.068;5.826;2022-07-30T08:32:43;8.20;;;7.37;;
67751;SDS011;54551;51.068;5.826;2022-07-30T08:35:09;10.20;;;8.50;;
67751;SDS011;54551;51.068;5.826;2022-07-30T08:37:35;12.37;;;9.93;;
67751;SDS011;54551;51.068;5.826;2022-07-30T08:40:03;11.50;;;9.37;;
67751;SDS011;54551;51.068;5.826;2022-07-30T08:42:31;10.63;;;8.80;;
67751;SDS011;54551;51.068;5.826;2022-07-30T08:44:59;8.93;;;6.00;;
67751;SDS011;54551;51.068;5.826;2022-07-30T08:47:31;9.73;;;6.60;;
67751;SDS011;54551;51.068;5.826;2022-07-30T08:50:11;10.37;;;7.37;;
67751;SDS011;54551;51.068;5.826;2022-07-30T08:52:58;7.93;;;7.07;;
67751;SDS011;54551;51.068;5.826;2022-07-30T08:55:26;6.17;;;5.57;;
67751;SDS011;54551;51.068;5.826;2022-07-30T08:57:52;7.70;;;6.07;;
67751;SDS011;54551;51.068;5.826;2022-07-30T09:00:19;8.20;;;6.20;;
67751;SDS011;54551;51.068;5.826;2022-07-30T09:05:47;8.70;;;6.70;;
67751;SDS011;54551;51.068;5.826;2022-07-30T09:11:25;8.93;;;7.40;;
67751;SDS011;54551;51.068;5.826;2022-07-30T09:13:51;9.67;;;8.03;;
67751;SDS011;54551;51.068;5.826;2022-07-30T09:16:18;8.40;;;7.50;;
67751;SDS011;54551;51.068;5.826;2022-07-30T09:18:49;10.63;;;6.15;;
67751;SDS011;54551;51.068;5.826;2022-07-30T09:21:17;9.90;;;7.78;;
67751;SDS011;54551;51.068;5.826;2022-07-30T09:29:46;7.38;;;6.15;;
67751;SDS011;54551;51.068;5.826;2022-07-30T09:32:48;9.48;;;5.85;;
67751;SDS011;54551;51.068;5.826;2022-07-30T09:35:27;8.25;;;6.65;;
67751;SDS011;54551;51.068;5.826;2022-07-30T09:38:26;10.73;;;6.60;;
67751;SDS011;54551;51.068;5.826;2022-07-30T09:41:15;8.00;;;6.45;;
67751;SDS011;54551;51.068;5.826;2022-07-30T09:43:49;8.65;;;6.30;;
67751;SDS011;54551;51.068;5.826;2022-07-30T09:46:43;11.60;;;7.65;;
67751;SDS011;54551;51.068;5.826;2022-07-30T09:49:37;7.80;;;6.18;;
67751;SDS011;54551;51.068;5.826;2022-07-30T09:52:06;8.48;;;6.75;;
67751;SDS011;54551;51.068;5.826;2022-07-30T09:54:47;5.88;;;5.28;;
67751;SDS011;54551;51.068;5.826;2022-07-30T09:57:15;5.55;;;4.53;;
67751;SDS011;54551;51.068;5.826;2022-07-30T09:59:40;9.30;;;5.30;;
67751;SDS011;54551;51.068;5.826;2022-07-30T10:02:06;5.28;;;4.78;;
67751;SDS011;54551;51.068;5.826;2022-07-30T10:04:52;11.82;;;9.77;;
67751;SDS011;54551;51.068;5.826;2022-07-30T10:07:19;5.60;;;4.95;;
67751;SDS011;54551;51.068;5.826;2022-07-30T10:09:46;6.03;;;3.75;;
67751;SDS011;54551;51.068;5.826;2022-07-30T10:12:14;6.70;;;6.00;;
67751;SDS011;54551;51.068;5.826;2022-07-30T10:14:44;5.53;;;4.07;;
67751;SDS011;54551;51.068;5.826;2022-07-30T10:17:12;3.22;;;2.53;;
67751;SDS011;54551;51.068;5.826;2022-07-30T10:19:45;4.75;;;3.75;;
67751;SDS011;54551;51.068;5.826;2022-07-30T10:22:30;4.15;;;3.20;;
67751;SDS011;54551;51.068;5.826;2022-07-30T10:25:17;4.40;;;4.00;;
67751;SDS011;54551;51.068;5.826;2022-07-30T10:28:07;4.55;;;2.65;;
67751;SDS011;54551;51.068;5.826;2022-07-30T10:30:33;3.03;;;2.60;;
67751;SDS011;54551;51.068;5.826;2022-07-30T10:33:00;3.58;;;2.40;;
67751;SDS011;54551;51.068;5.826;2022-07-30T10:35:27;2.95;;;2.10;;
67751;SDS011;54551;51.068;5.826;2022-07-30T10:37:53;3.20;;;2.33;;
67751;SDS011;54551;51.068;5.826;2022-07-30T10:40:27;2.53;;;2.33;;
67751;SDS011;54551;51.068;5.826;2022-07-30T10:48:39;3.58;;;2.33;;
67751;SDS011;54551;51.068;5.826;2022-07-30T10:51:05;2.83;;;2.10;;
67751;SDS011;54551;51.068;5.826;2022-07-30T10:53:35;2.42;;;2.22;;
67751;SDS011;54551;51.068;5.826;2022-07-30T10:56:10;3.13;;;2.00;;
67751;SDS011;54551;51.068;5.826;2022-07-30T10:59:20;2.42;;;1.90;;
67751;SDS011;54551;51.068;5.826;2022-07-30T11:06:51;2.97;;;1.70;;
67751;SDS011;54551;51.068;5.826;2022-07-30T11:12:06;1.95;;;1.58;;
67751;SDS011;54551;51.068;5.826;2022-07-30T11:17:14;1.95;;;1.75;;
67751;SDS011;54551;51.068;5.826;2022-07-30T11:22:33;2.30;;;1.70;;
67751;SDS011;54551;51.068;5.826;2022-07-30T11:25:06;3.92;;;1.85;;
67751;SDS011;54551;51.068;5.826;2022-07-30T11:27:43;2.80;;;1.40;;
67751;SDS011;54551;51.068;5.826;2022-07-30T11:32:41;4.15;;;1.92;;
67751;SDS011;54551;51.068;5.826;2022-07-30T11:43:29;2.78;;;1.58;;
67751;SDS011;54551;51.068;5.826;2022-07-30T11:46:07;1.83;;;1.73;;
67751;SDS011;54551;51.068;5.826;2022-07-30T11:48:35;2.90;;;1.83;;
67751;SDS011;54551;51.068;5.826;2022-07-30T11:51:06;4.65;;;2.20;;
67751;SDS011;54551;51.068;5.826;2022-07-30T11:53:33;2.30;;;1.70;;
67751;SDS011;54551;51.068;5.826;2022-07-30T11:56:00;2.05;;;1.85;;
67751;SDS011;54551;51.068;5.826;2022-07-30T11:58:29;3.22;;;1.98;;
67751;SDS011;54551;51.068;5.826;2022-07-30T12:01:03;4.88;;;2.10;;
67751;SDS011;54551;51.068;5.826;2022-07-30T12:03:30;5.93;;;2.40;;
67751;SDS011;54551;51.068;5.826;2022-07-30T12:06:03;1.42;;;1.33;;
67751;SDS011;54551;51.068;5.826;2022-07-30T12:08:37;2.95;;;1.90;;
67751;SDS011;54551;51.068;5.826;2022-07-30T12:11:07;3.25;;;2.25;;
67751;SDS011;54551;51.068;5.826;2022-07-30T12:13:33;2.85;;;1.95;;
67751;SDS011;54551;51.068;5.826;2022-07-30T12:16:11;3.92;;;2.08;;
67751;SDS011;54551;51.068;5.826;2022-07-30T12:18:40;2.30;;;2.08;;
67751;SDS011;54551;51.068;5.826;2022-07-30T12:21:07;5.60;;;2.88;;
67751;SDS011;54551;51.068;5.826;2022-07-30T12:23:37;2.55;;;2.20;;
67751;SDS011;54551;51.068;5.826;2022-07-30T12:26:06;3.92;;;2.63;;
67751;SDS011;54551;51.068;5.826;2022-07-30T12:28:33;3.70;;;2.20;;
67751;SDS011;54551;51.068;5.826;2022-07-30T12:31:00;3.78;;;2.30;;
67751;SDS011;54551;51.068;5.826;2022-07-30T12:33:28;5.75;;;2.30;;
67751;SDS011;54551;51.068;5.826;2022-07-30T12:35:56;4.13;;;2.10;;
67751;SDS011;54551;51.068;5.826;2022-07-30T12:38:24;3.78;;;2.22;;
67751;SDS011;54551;51.068;5.826;2022-07-30T12:40:52;4.50;;;2.38;;
67751;SDS011;54551;51.068;5.826;2022-07-30T12:46:27;3.65;;;2.63;;
67751;SDS011;54551;51.068;5.826;2022-07-30T12:48:57;2.35;;;2.08;;
67751;SDS011;54551;51.068;5.826;2022-07-30T12:51:27;6.07;;;2.70;;
67751;SDS011;54551;51.068;5.826;2022-07-30T12:54:00;2.97;;;2.42;;
67751;SDS011;54551;51.068;5.826;2022-07-30T12:56:37;3.78;;;2.50;;
67751;SDS011;54551;51.068;5.826;2022-07-30T12:59:18;2.60;;;2.28;;
67751;SDS011;54551;51.068;5.826;2022-07-30T13:01:45;4.18;;;2.30;;
67751;SDS011;54551;51.068;5.826;2022-07-30T13:04:14;4.90;;;2.10;;
67751;SDS011;54551;51.068;5.826;2022-07-30T13:06:40;5.55;;;2.03;;
67751;SDS011;54551;51.068;5.826;2022-07-30T13:09:20;3.75;;;2.92;;
67751;SDS011;54551;51.068;5.826;2022-07-30T13:11:46;3.97;;;2.03;;
67751;SDS011;54551;51.068;5.826;2022-07-30T13:14:12;4.82;;;2.40;;
67751;SDS011;54551;51.068;5.826;2022-07-30T13:16:41;4.05;;;2.30;;
67751;SDS011;54551;51.068;5.826;2022-07-30T13:19:08;2.53;;;2.00;;
67751;SDS011;54551;51.068;5.826;2022-07-30T13:21:38;5.10;;;2.17;;
67751;SDS011;54551;51.068;5.826;2022-07-30T13:24:05;4.95;;;2.10;;
67751;SDS011;54551;51.068;5.826;2022-07-30T13:26:32;3.63;;;2.25;;
67751;SDS011;54551;51.068;5.826;2022-07-30T13:29:00;3.75;;;2.15;;
67751;SDS011;54551;51.068;5.826;2022-07-30T13:31:26;3.03;;;2.33;;
67751;SDS011;54551;51.068;5.826;2022-07-30T13:33:52;2.55;;;2.10;;
67751;SDS011;54551;51.068;5.826;2022-07-30T13:36:18;3.28;;;2.13;;
67751;SDS011;54551;51.068;5.826;2022-07-30T13:38:44;4.45;;;2.05;;
67751;SDS011;54551;51.068;5.826;2022-07-30T13:41:11;3.67;;;2.20;;
67751;SDS011;54551;51.068;5.826;2022-07-30T13:43:37;3.13;;;2.03;;
67751;SDS011;54551;51.068;5.826;2022-07-30T13:46:04;2.63;;;1.98;;
67751;SDS011;54551;51.068;5.826;2022-07-30T13:48:30;3.92;;;2.33;;
67751;SDS011;54551;51.068;5.826;2022-07-30T13:50:58;3.05;;;1.77;;
67751;SDS011;54551;51.068;5.826;2022-07-30T13:53:25;4.47;;;1.92;;
67751;SDS011;54551;51.068;5.826;2022-07-30T13:55:51;2.67;;;2.17;;
67751;SDS011;54551;51.068;5.826;2022-07-30T13:58:17;4.55;;;2.10;;
67751;SDS011;54551;51.068;5.826;2022-07-30T14:00:42;4.80;;;2.33;;
67751;SDS011;54551;51.068;5.826;2022-07-30T14:03:09;3.95;;;1.90;;
67751;SDS011;54551;51.068;5.826;2022-07-30T14:05:35;3.25;;;2.00;;
67751;SDS011;54551;51.068;5.826;2022-07-30T14:08:02;2.60;;;1.77;;
67751;SDS011;54551;51.068;5.826;2022-07-30T14:10:29;3.03;;;1.92;;
67751;SDS011;54551;51.068;5.826;2022-07-30T14:12:56;4.90;;;2.72;;
67751;SDS011;54551;51.068;5.826;2022-07-30T14:15:24;4.47;;;2.00;;
67751;SDS011;54551;51.068;5.826;2022-07-30T14:17:53;2.80;;;1.85;;
67751;SDS011;54551;51.068;5.826;2022-07-30T14:20:19;2.28;;;2.00;;
67751;SDS011;54551;51.068;5.826;2022-07-30T14:22:45;5.45;;;1.95;;
67751;SDS011;54551;51.068;5.826;2022-07-30T14:25:11;4.32;;;2.10;;
67751;SDS011;54551;51.068;5.826;2022-07-30T14:27:37;4.55;;;2.20;;
67751;SDS011;54551;51.068;5.826;2022-07-30T14:30:04;5.22;;;2.40;;
67751;SDS011;54551;51.068;5.826;2022-07-30T14:32:31;3.58;;;2.20;;
67751;SDS011;54551;51.068;5.826;2022-07-30T14:34:57;4.50;;;2.17;;
67751;SDS011;54551;51.068;5.826;2022-07-30T14:37:23;3.58;;;2.38;;
67751;SDS011;54551;51.068;5.826;2022-07-30T14:39:49;3.58;;;1.88;;
67751;SDS011;54551;51.068;5.826;2022-07-30T14:42:15;4.07;;;2.58;;
67751;SDS011;54551;51.068;5.826;2022-07-30T14:44:41;3.42;;;2.28;;
67751;SDS011;54551;51.068;5.826;2022-07-30T14:47:07;4.57;;;2.15;;
67751;SDS011;54551;51.068;5.826;2022-07-30T14:49:33;4.95;;;2.25;;
67751;SDS011;54551;51.068;5.826;2022-07-30T14:51:59;4.38;;;2.35;;
67751;SDS011;54551;51.068;5.826;2022-07-30T14:54:25;3.55;;;2.40;;
67751;SDS011;54551;51.068;5.826;2022-07-30T14:56:55;4.15;;;2.70;;
67751;SDS011;54551;51.068;5.826;2022-07-30T14:59:21;3.00;;;2.45;;
67751;SDS011;54551;51.068;5.826;2022-07-30T15:01:47;5.20;;;2.83;;
67751;SDS011;54551;51.068;5.826;2022-07-30T15:04:13;5.75;;;2.30;;
67751;SDS011;54551;51.068;5.826;2022-07-30T15:06:39;5.97;;;2.38;;
67751;SDS011;54551;51.068;5.826;2022-07-30T15:09:06;2.42;;;1.83;;
67751;SDS011;54551;51.068;5.826;2022-07-30T15:11:32;4.35;;;2.00;;
67751;SDS011;54551;51.068;5.826;2022-07-30T15:13:58;2.95;;;2.00;;
67751;SDS011;54551;51.068;5.826;2022-07-30T15:16:24;3.08;;;2.13;;
67751;SDS011;54551;51.068;5.826;2022-07-30T15:18:50;3.95;;;2.00;;
67751;SDS011;54551;51.068;5.826;2022-07-30T15:21:17;4.88;;;2.38;;
67751;SDS011;54551;51.068;5.826;2022-07-30T15:23:43;2.85;;;1.77;;
67751;SDS011;54551;51.068;5.826;2022-07-30T15:26:09;1.98;;;1.83;;
67751;SDS011;54551;51.068;5.826;2022-07-30T15:28:35;2.78;;;2.30;;
67751;SDS011;54551;51.068;5.826;2022-07-30T15:31:00;4.28;;;2.22;;
67751;SDS011;54551;51.068;5.826;2022-07-30T15:33:27;4.68;;;2.10;;
67751;SDS011;54551;51.068;5.826;2022-07-30T15:35:53;2.50;;;1.95;;
67751;SDS011;54551;51.068;5.826;2022-07-30T15:38:19;2.75;;;2.13;;
67751;SDS011;54551;51.068;5.826;2022-07-30T15:40:45;3.50;;;2.10;;
67751;SDS011;54551;51.068;5.826;2022-07-30T15:43:12;1.70;;;1.60;;
67751;SDS011;54551;51.068;5.826;2022-07-30T15:45:38;4.07;;;2.10;;